TAF Text Data
IDs:
Format:
Raw Decoded Include METAR

Data at: 0228 UTC 23 Sep 2018

Region: TOP
KATL 230130Z 2302/2406 14003KT P6SM FEW060 SCT120 SCT250
  FM231400 14005KT P6SM FEW020 SCT040 SCT250
  FM231700 13007KT P6SM BKN045
  FM232000 12007KT P6SM BKN050
  FM240000 10007KT P6SM SCT060 BKN150


KBOS 222320Z 2300/2406 35006KT P6SM BKN150
  FM231400 07005KT P6SM SCT150
  FM231700 13008KT P6SM SCT200
  FM240100 19004KT P6SM SCT250
  FM240400 32004KT P6SM FEW250


KBWI 222322Z 2300/2406 03008KT P6SM OVC110
  FM230400 03004KT P6SM OVC100
  FM231200 04005KT P6SM -RA OVC050
  FM231500 04005KT 4SM -RA OVC040
  FM240300 06006KT P6SM OVC020


KCLE 230201Z 2302/2406 10005KT P6SM SCT030 BKN250
  FM231600 06006KT P6SM BKN027
  FM231800 04010KT P6SM SCT030


KCLT 222339Z 2300/2406 17004KT P6SM FEW250
  FM230800 15003KT P6SM BKN070
  FM231200 04004KT P6SM BKN025 OVC035
  FM231800 05007KT P6SM SCT026 BKN045
  PROB30 2319/2324 4SM -SHRA OVC025
  FM240000 05007KT 6SM BR SCT007 OVC015
  PROB30 2400/2406 4SM -RA BR OVC007


KCVG 230128Z 2301/2406 06008KT P6SM SCT060 OVC120
  FM230900 05006KT 5SM -SHRA BR OVC040
  FM231400 06006KT P6SM VCSH BKN040 OVC080
  FM232100 09007KT P6SM VCSH BKN020 BKN040
  FM240300 09006KT P6SM VCSH BKN015


KDCA 222322Z 2300/2406 02010KT P6SM OVC080
  FM230800 01005KT P6SM -RA OVC045
  FM231200 03006KT P6SM -RA OVC030
  FM232000 04006KT 4SM -RA OVC015


KDEN 222330Z 2300/2406 10008KT P6SM SKC
  FM230200 13008KT P6SM SKC
  FM230400 17008KT P6SM SKC
  FM230600 21010KT P6SM SKC
  FM232000 14008KT P6SM FEW250


KDFW 222326Z 2300/2406 01014KT 4SM -DZ BR VCSH BKN007 OVC012
  TEMPO 2300/2304 2SM -RA OVC006
  FM230600 01009KT 4SM -DZ BR OVC005
  FM231600 01009KT 6SM BR OVC009


KDTW 222321Z 2300/2406 11004KT P6SM FEW045 BKN250
  FM230500 VRB03KT P6SM SKC
  FM231400 08006KT P6SM SKC


KEWR 230210Z 2302/2406 02008KT P6SM FEW040 BKN200
  FM230700 04005KT P6SM SCT040 BKN200
  TEMPO 2311/2313 BKN040
  FM231300 06006KT P6SM VCSH BKN040 BKN200
  FM231600 09006KT P6SM BKN035
  FM232100 13006KT P6SM BKN035
  FM240200 05004KT P6SM SCT035 SCT250


KFLL 222322Z 2300/2406 10010KT P6SM FEW020 SCT080 BKN200
  FM230200 VRB03KT P6SM FEW025 SCT050
  FM231400 10010KT P6SM VCSH FEW025 SCT050
  FM240200 08006KT P6SM SCT035 SCT250


KIAD 222322Z 2300/2406 01008KT P6SM BKN080
  FM230500 01004KT P6SM OVC060
  FM230800 36005KT P6SM -RA OVC045
  FM231200 02004KT 5SM -RA OVC030
  FM231800 03004KT 4SM -RA OVC015


KIAH 230201Z 2302/2406 12004KT P6SM SCT009 SCT025 OVC250
  FM230400 34006KT P6SM BKN025 OVC120
  FM230500 02005KT P6SM VCSH BKN025 BKN150
  FM231200 03005KT P6SM VCSH SCT015 BKN025
  FM231700 28007KT P6SM BKN035


KJFK 230210Z 2302/2406 02008KT P6SM BKN200
  FM230700 05006KT P6SM SCT040 BKN200
  TEMPO 2311/2313 BKN040
  FM231300 08007KT P6SM BKN040 BKN200
  FM231600 14008KT P6SM BKN035
  FM232200 15004KT P6SM BKN035
  FM240200 04004KT P6SM SCT035 SCT250


KLAS 222320Z 2300/2406 21011G20KT P6SM FEW120
  FM230200 21009KT P6SM SKC
  FM231300 VRB05KT P6SM FEW120
  FM231900 21012G20KT P6SM FEW120
  FM240200 21008KT P6SM FEW250


KLAX 222332Z 2300/2406 26015KT P6SM SKC
  FM230300 26010KT P6SM SCT010
  FM230500 25008KT P6SM BKN007
  FM231000 VRB03KT 6SM BR OVC007
  FM231600 VRB03KT P6SM BKN011
  FM231700 26008KT P6SM SCT011
  FM232000 27012KT P6SM FEW016
  FM240400 25006KT P6SM SCT011


KLGA 230210Z 2302/2406 04006KT P6SM SCT040 BKN200
  TEMPO 2311/2313 BKN040
  FM231300 06007KT P6SM BKN040 BKN200
  FM231600 07007KT P6SM BKN035
  FM232300 12004KT P6SM BKN035
  FM240200 06004KT P6SM SCT035 SCT250


KMCO 222333Z 2300/2406 08008KT P6SM VCSH SCT080 BKN250
  FM230400 05004KT P6SM SCT250
  FM231400 09008KT P6SM SCT040
  FM231800 09010KT P6SM VCTS SCT040CB BKN250
  FM232200 08010KT P6SM SCT040 BKN100
  FM240300 07004KT P6SM SCT250


KMDW 222322Z 2300/2406 07006KT P6SM SKC
  FM230200 13003KT P6SM SKC
  FM231700 10012KT P6SM SKC
  FM240000 11005KT P6SM SKC


KMEM 230140Z 2302/2406 04008KT 6SM -RA BR OVC007
  FM230400 03007KT 4SM -RA OVC005
  FM230800 04005KT 3SM -SHRA BR OVC003
  FM231600 06006KT 4SM -SHRA BR OVC007
  FM240100 09005KT 5SM -RA BR OVC004


KMIA 222322Z 2300/2406 06006KT P6SM FEW025 FEW100 SCT250
  FM230100 VRB03KT P6SM FEW025 SCT050
  FM231400 10008KT P6SM VCSH FEW025 SCT050
  FM240100 08005KT P6SM SCT035


KMSP 222340Z 2300/2406 17007KT P6SM FEW250
  FM231100 13007KT P6SM FEW250
  FM231900 15012G21KT P6SM FEW040 SCT250


KORD 222322Z 2300/2406 07006KT P6SM SKC
  FM230200 13003KT P6SM SKC
  FM231700 10011KT P6SM SKC
  FM240000 11005KT P6SM SKC


KPDX 222338Z 2300/2324 28007KT P6SM VCSH SCT025 SCT045 BKN060
  FM230500 30004KT P6SM SCT030 BKN050
  FM231200 31004KT P6SM BKN018 BKN040
  FM231700 30007KT P6SM SCT020 SCT050


KPHL 222329Z 2300/2406 02008KT P6SM BKN100
  FM231000 03006KT P6SM -RA OVC040
  FM231300 04008KT 5SM -RA BR OVC025
  FM231600 05006KT 5SM -RA BR OVC015
  FM232100 07004KT P6SM BKN015


KPHX 230208Z 2302/2406 17006KT P6SM FEW100
  FM230600 10005KT P6SM SKC
  FM231600 10014KT P6SM SKC
  FM232000 12005KT P6SM FEW110
  FM240000 27004KT P6SM FEW120


KPIT 222326Z 2300/2406 VRB03KT P6SM SCT035 OVC150
  FM231100 03004KT 5SM BR SCT025 BKN080
  FM231400 08005KT P6SM SCT030 BKN080


KSAN 222322Z 2300/2406 31010KT P6SM SCT070
  FM230300 31005KT P6SM SCT011
  FM230900 VRB04KT P6SM OVC010
  FM231600 30006KT P6SM SCT012
  FM232000 30010KT P6SM SKC
  FM240300 31005KT P6SM SCT011


KSEA 222320Z 2300/2406 21014G22KT P6SM FEW020 SCT030 BKN090
  TEMPO 2300/2302 SCT020 BKN030 OVC090
  FM230300 19010KT P6SM SCT030 BKN050
  FM230900 18007KT P6SM FEW007 OVC020
  TEMPO 2312/2316 BKN007 OVC020
  FM231900 21006KT P6SM SCT025 BKN050


KSFO 222320Z 2300/2406 29016KT P6SM FEW200
  FM230500 29010KT P6SM FEW011 FEW250
  FM231000 29010KT P6SM OVC008
  FM231730 29011KT P6SM FEW011
  FM232100 29017KT P6SM SKC


KSLC 222332Z 2300/2406 30008KT P6SM FEW100 FEW200
  FM230200 15011KT P6SM FEW200
  FM231700 17016G24KT P6SM FEW100 SCT180
  FM232100 29012G18KT P6SM SCT100 BKN180
  FM240000 35008KT P6SM SCT080 BKN120


KSTL 222337Z 2300/2406 07005KT P6SM BKN250
  FM231500 07008KT P6SM SCT040
  FM232100 08008KT P6SM BKN040
  FM240300 09006KT P6SM OVC025


KTPA 222321Z 2300/2406 07006KT P6SM VCSH SCT050 BKN250
  FM230300 05004KT P6SM FEW030 SCT250
  FM231600 10006KT P6SM VCSH SCT035 SCT250
  FM231900 10008KT P6SM VCTS SCT040CB BKN250